createdAt,value
2023-03-02T00:01:29.251Z,3.52
2023-03-02T00:03:58.067Z,3.54
2023-03-02T00:06:24.477Z,3.67
2023-03-02T00:08:50.860Z,3.66
2023-03-02T00:11:17.277Z,3.52
2023-03-02T00:13:43.709Z,3.74
2023-03-02T00:16:10.179Z,3.76
2023-03-02T00:18:36.582Z,3.76
2023-03-02T00:21:02.948Z,3.57
2023-03-02T00:23:29.311Z,3.54
2023-03-02T00:25:55.699Z,3.71
2023-03-02T00:28:22.098Z,3.73
2023-03-02T00:30:48.482Z,3.77
2023-03-02T00:33:14.917Z,3.64
2023-03-02T00:35:41.347Z,3.79
2023-03-02T00:38:07.829Z,3.83
2023-03-02T00:40:34.252Z,3.83
2023-03-02T00:43:00.647Z,3.77
2023-03-02T00:45:27.034Z,3.66
2023-03-02T00:47:53.388Z,3.69
2023-03-02T00:50:19.762Z,3.72
2023-03-02T00:52:46.136Z,3.63
2023-03-02T00:55:12.576Z,3.70
2023-03-02T00:57:39.007Z,3.68
2023-03-02T01:00:05.395Z,3.77
2023-03-02T01:02:31.874Z,3.84
2023-03-02T01:04:58.397Z,3.82
2023-03-02T01:07:24.797Z,3.69
2023-03-02T01:09:51.169Z,3.59
2023-03-02T01:12:17.533Z,3.51
2023-03-02T01:14:43.948Z,3.65
2023-03-02T01:17:10.333Z,3.64
2023-03-02T01:19:36.741Z,3.51
2023-03-02T01:22:03.111Z,3.61
2023-03-02T01:24:29.535Z,3.51
2023-03-02T01:26:55.926Z,3.60
2023-03-02T01:29:22.366Z,3.56
2023-03-02T01:31:48.803Z,3.66
2023-03-02T01:34:15.353Z,3.58
2023-03-02T01:36:41.729Z,3.63
2023-03-02T01:39:08.110Z,3.75
2023-03-02T01:41:34.499Z,3.69
2023-03-02T01:44:00.853Z,3.80
2023-03-02T01:46:27.217Z,3.52
2023-03-02T01:48:53.623Z,3.59
2023-03-02T01:51:19.988Z,3.78
2023-03-02T01:53:46.368Z,3.71
2023-03-02T01:56:12.759Z,3.71
2023-03-02T01:58:39.185Z,3.76
2023-03-02T02:01:05.616Z,3.68
2023-03-02T02:03:32.031Z,3.79
2023-03-02T02:05:58.420Z,3.78
2023-03-02T02:08:24.817Z,3.84
2023-03-02T02:10:51.178Z,3.84
2023-03-02T02:13:17.590Z,3.93
2023-03-02T02:15:44.012Z,3.94
2023-03-02T02:18:10.471Z,3.94
2023-03-02T02:20:36.857Z,3.99
2023-03-02T02:23:03.296Z,3.95
2023-03-02T02:25:29.690Z,3.77
2023-03-02T02:27:56.064Z,3.54
2023-03-02T02:30:22.447Z,3.65
2023-03-02T02:32:48.840Z,3.85
2023-03-02T02:35:15.320Z,3.89
2023-03-02T02:37:41.693Z,3.83
2023-03-02T02:40:08.083Z,3.96
2023-03-02T02:42:34.481Z,3.91
2023-03-02T02:45:00.896Z,3.90
2023-03-02T02:47:27.289Z,3.89
2023-03-02T02:49:53.658Z,4.05
2023-03-02T02:52:20.060Z,3.97
2023-03-02T02:54:46.453Z,4.01
2023-03-02T02:57:12.884Z,3.91
2023-03-02T02:59:39.291Z,4.04
2023-03-02T03:02:05.670Z,3.99
2023-03-02T03:04:32.074Z,4.00
2023-03-02T03:06:58.486Z,4.15
2023-03-02T03:09:24.976Z,4.11
2023-03-02T03:11:51.453Z,4.11
2023-03-02T03:14:17.819Z,4.05
2023-03-02T03:16:44.267Z,4.10
2023-03-02T03:19:10.746Z,4.08
2023-03-02T03:21:37.128Z,4.02
2023-03-02T03:24:03.521Z,4.01
2023-03-02T03:26:30.253Z,4.02
2023-03-02T03:28:56.873Z,4.06
2023-03-02T03:31:23.276Z,4.05
2023-03-02T03:33:49.973Z,4.08
2023-03-02T03:36:16.337Z,4.11
2023-03-02T03:38:42.737Z,4.24
2023-03-02T03:41:09.148Z,4.15
2023-03-02T03:43:35.522Z,4.09
2023-03-02T03:46:01.968Z,4.04
2023-03-02T03:48:28.393Z,4.10
2023-03-02T03:50:54.786Z,4.00
2023-03-02T03:53:21.176Z,3.79
2023-03-02T03:55:47.583Z,3.71
2023-03-02T03:58:14.047Z,3.81
2023-03-02T04:00:40.459Z,3.89
2023-03-02T04:03:06.840Z,3.91
2023-03-02T04:05:33.218Z,4.01
2023-03-02T04:07:59.587Z,4.01
2023-03-02T04:10:25.989Z,4.02
2023-03-02T04:12:52.423Z,4.01
2023-03-02T04:15:18.828Z,4.08
2023-03-02T04:17:45.210Z,4.03
2023-03-02T04:20:11.601Z,4.07
2023-03-02T04:22:38.049Z,4.10
2023-03-02T04:25:04.465Z,4.19
2023-03-02T04:27:30.845Z,4.18
2023-03-02T04:29:57.223Z,4.13
2023-03-02T04:32:23.665Z,4.12
2023-03-02T04:34:50.070Z,3.88
2023-03-02T04:37:16.454Z,3.87
2023-03-02T04:39:42.853Z,3.79
2023-03-02T04:42:09.263Z,3.89
2023-03-02T04:44:35.648Z,3.85
2023-03-02T04:47:02.036Z,3.78
2023-03-02T04:49:28.444Z,3.82
2023-03-02T04:51:54.822Z,3.85
2023-03-02T04:54:21.233Z,3.83
2023-03-02T04:56:47.610Z,3.96
2023-03-02T04:59:14.033Z,4.07
2023-03-02T05:01:40.447Z,4.08
2023-03-02T05:04:06.909Z,4.03
2023-03-02T05:06:33.663Z,3.99
2023-03-02T05:09:00.300Z,4.02
2023-03-02T05:11:26.710Z,4.05
2023-03-02T05:13:53.100Z,3.97
2023-03-02T05:16:19.638Z,3.80
2023-03-02T05:18:46.119Z,3.84
2023-03-02T05:21:12.487Z,3.92
2023-03-02T05:23:38.885Z,3.87
2023-03-02T05:26:05.263Z,3.88
2023-03-02T05:28:31.634Z,4.00
2023-03-02T05:30:58.058Z,4.02
2023-03-02T05:33:24.436Z,4.01
2023-03-02T05:35:50.926Z,3.85
2023-03-02T05:38:17.322Z,3.88
2023-03-02T05:40:43.699Z,3.73
2023-03-02T05:43:10.080Z,3.77
2023-03-02T05:45:36.546Z,3.84
2023-03-02T05:48:02.962Z,4.05
2023-03-02T05:50:29.364Z,4.09
2023-03-02T05:52:55.744Z,3.87
2023-03-02T05:55:22.118Z,3.88
2023-03-02T05:57:48.580Z,3.90
2023-03-02T06:00:14.952Z,3.92
2023-03-02T06:02:41.412Z,3.80
2023-03-02T06:05:07.808Z,4.06
2023-03-02T06:07:34.209Z,3.89
2023-03-02T06:10:00.652Z,3.96
2023-03-02T06:12:27.029Z,3.86
2023-03-02T06:14:53.421Z,4.03
2023-03-02T06:17:22.044Z,3.96
2023-03-02T06:19:48.446Z,4.06
2023-03-02T06:22:14.877Z,4.00
2023-03-02T06:24:41.315Z,4.03
2023-03-02T06:27:07.827Z,4.06
2023-03-02T06:29:34.230Z,4.34
2023-03-02T06:32:00.752Z,4.33
2023-03-02T06:34:28.216Z,4.05
2023-03-02T06:36:54.584Z,4.13
2023-03-02T06:39:20.966Z,4.14
2023-03-02T06:41:47.336Z,4.19
2023-03-02T06:44:13.736Z,4.04
2023-03-02T06:46:40.178Z,3.97
2023-03-02T06:49:06.634Z,4.02
2023-03-02T06:51:33.022Z,3.92
2023-03-02T06:53:59.563Z,3.89
2023-03-02T06:56:25.973Z,3.95
2023-03-02T06:58:52.402Z,3.95
2023-03-02T07:01:18.788Z,4.10
2023-03-02T07:03:45.220Z,4.28
2023-03-02T07:06:11.633Z,4.16
2023-03-02T07:08:38.025Z,4.18
2023-03-02T07:11:04.414Z,4.06
2023-03-02T07:13:30.814Z,4.15
2023-03-02T07:15:57.181Z,4.15
2023-03-02T07:18:23.563Z,4.32
2023-03-02T07:20:49.934Z,4.33
2023-03-02T07:23:16.369Z,4.34
2023-03-02T07:25:42.779Z,4.36
2023-03-02T07:28:09.228Z,4.27
2023-03-02T07:30:35.652Z,4.43
2023-03-02T07:33:02.057Z,4.46
2023-03-02T07:35:28.568Z,4.36
2023-03-02T07:37:55.028Z,4.34
2023-03-02T07:40:21.422Z,4.23
2023-03-02T07:42:47.810Z,4.14
2023-03-02T07:45:14.220Z,4.11
2023-03-02T07:47:40.605Z,4.18
2023-03-02T07:50:06.985Z,4.41
2023-03-02T07:52:33.390Z,4.37
2023-03-02T07:54:59.818Z,4.21
2023-03-02T07:57:26.288Z,4.14
2023-03-02T07:59:52.705Z,4.17
2023-03-02T08:02:19.138Z,4.16
2023-03-02T08:04:45.523Z,4.27
2023-03-02T08:07:11.880Z,4.10
2023-03-02T08:09:38.274Z,4.08
2023-03-02T08:12:04.644Z,3.83
2023-03-02T08:14:31.013Z,3.96
2023-03-02T08:16:57.380Z,3.92
2023-03-02T08:19:23.781Z,4.05
2023-03-02T08:21:50.172Z,4.14
2023-03-02T08:24:16.598Z,3.87
2023-03-02T08:26:42.989Z,3.72
2023-03-02T08:29:09.350Z,3.98
2023-03-02T08:31:36.135Z,4.04
2023-03-02T08:34:02.641Z,4.23
2023-03-02T08:36:29.126Z,4.15
2023-03-02T08:38:55.534Z,4.22
2023-03-02T08:41:21.946Z,4.27
2023-03-02T08:43:48.334Z,4.34
2023-03-02T08:46:14.857Z,4.34
2023-03-02T08:48:41.251Z,4.32
2023-03-02T08:51:07.625Z,4.23
2023-03-02T08:53:34.069Z,4.09
2023-03-02T08:56:00.468Z,4.18
2023-03-02T08:58:26.877Z,4.08
2023-03-02T09:00:53.335Z,3.96
2023-03-02T09:03:39.675Z,3.90
2023-03-02T09:06:06.105Z,3.95
2023-03-02T09:08:32.483Z,4.02
2023-03-02T09:10:58.853Z,4.32
2023-03-02T09:13:25.233Z,4.28
2023-03-02T09:15:51.628Z,4.42
2023-03-02T09:18:18.041Z,4.45
2023-03-02T09:20:44.564Z,4.35
2023-03-02T09:23:10.974Z,4.42
2023-03-02T09:25:37.361Z,4.40
2023-03-02T09:28:03.746Z,4.18
2023-03-02T09:30:30.162Z,4.01
2023-03-02T09:32:56.645Z,3.82
2023-03-02T09:35:23.091Z,3.75
2023-03-02T09:37:49.579Z,3.66
2023-03-02T09:40:16.039Z,3.98
2023-03-02T09:42:44.346Z,4.46
2023-03-02T09:45:10.987Z,4.53
2023-03-02T09:47:37.374Z,4.81
2023-03-02T09:50:03.788Z,4.69
2023-03-02T09:52:30.158Z,4.41
2023-03-02T09:54:56.548Z,4.54
2023-03-02T09:57:22.962Z,4.55
2023-03-02T09:59:49.346Z,4.60
2023-03-02T10:02:15.742Z,4.78
2023-03-02T10:04:42.161Z,4.51
2023-03-02T10:07:08.577Z,4.29
2023-03-02T10:09:34.954Z,4.48
2023-03-02T10:12:01.347Z,4.53
2023-03-02T10:14:27.738Z,4.38
2023-03-02T10:16:54.137Z,4.55
2023-03-02T10:19:20.525Z,4.71
2023-03-02T10:21:46.907Z,4.80
2023-03-02T10:24:13.348Z,5.31
2023-03-02T10:26:39.739Z,5.36
2023-03-02T10:29:06.129Z,5.48
2023-03-02T10:31:32.500Z,5.41
2023-03-02T10:33:58.873Z,5.28
2023-03-02T10:36:25.305Z,5.24
2023-03-02T10:38:51.677Z,5.18
2023-03-02T10:41:18.054Z,5.66
2023-03-02T10:43:44.477Z,5.42
2023-03-02T10:46:10.938Z,5.39
2023-03-02T10:48:40.919Z,5.78
2023-03-02T10:51:07.532Z,6.30
2023-03-02T10:53:33.909Z,6.66
2023-03-02T10:56:01.298Z,6.57
2023-03-02T10:58:27.660Z,6.89
2023-03-02T11:00:54.088Z,7.28
2023-03-02T11:03:20.495Z,6.99
2023-03-02T11:05:46.864Z,7.29
2023-03-02T11:08:13.227Z,7.24
2023-03-02T11:10:39.654Z,7.67
2023-03-02T11:13:06.023Z,7.50
2023-03-02T11:15:32.403Z,7.80
2023-03-02T11:17:58.844Z,7.95
2023-03-02T11:20:25.217Z,7.18
2023-03-02T11:22:51.631Z,6.68
2023-03-02T11:25:17.992Z,6.95
2023-03-02T11:27:44.390Z,7.48
2023-03-02T11:30:10.779Z,7.68
2023-03-02T11:32:37.287Z,7.79
2023-03-02T11:35:03.707Z,8.31
2023-03-02T11:37:30.123Z,7.59
2023-03-02T11:39:56.508Z,7.08
2023-03-02T11:42:23.005Z,7.43
2023-03-02T11:44:49.454Z,7.80
2023-03-02T11:47:15.919Z,8.17
2023-03-02T11:49:42.711Z,7.49
2023-03-02T11:52:09.074Z,7.21
2023-03-02T11:54:35.480Z,7.79
2023-03-02T11:57:01.869Z,7.12
2023-03-02T11:59:28.915Z,6.99
2023-03-02T12:01:55.454Z,7.12
2023-03-02T12:04:21.967Z,7.45
2023-03-02T12:06:48.367Z,7.04
2023-03-02T12:09:14.840Z,7.40
2023-03-02T12:11:41.232Z,7.42
2023-03-02T12:14:07.619Z,7.14
2023-03-02T12:16:34.435Z,7.62
2023-03-02T12:19:01.102Z,7.89
2023-03-02T12:21:27.485Z,8.00
2023-03-02T12:23:53.869Z,7.81
2023-03-02T12:26:20.309Z,7.35
2023-03-02T12:28:46.703Z,7.65
2023-03-02T12:31:13.145Z,7.34
2023-03-02T12:33:39.547Z,6.79
2023-03-02T12:36:05.919Z,7.64
2023-03-02T12:38:32.310Z,8.20
2023-03-02T12:40:58.765Z,8.98
2023-03-02T12:43:25.145Z,8.42
2023-03-02T12:45:51.532Z,8.53
2023-03-02T12:48:18.260Z,8.10
2023-03-02T12:50:44.775Z,8.32
2023-03-02T12:53:11.142Z,8.73
2023-03-02T12:55:37.583Z,9.56
2023-03-02T12:58:03.994Z,9.42
2023-03-02T13:00:30.502Z,9.82
2023-03-02T13:02:56.956Z,9.46
2023-03-02T13:05:23.443Z,8.99
2023-03-02T13:07:50.023Z,9.29
2023-03-02T13:10:16.418Z,9.56
2023-03-02T13:12:42.829Z,9.73
2023-03-02T13:15:09.207Z,9.25
2023-03-02T13:17:35.589Z,9.44
2023-03-02T13:20:01.974Z,9.10
2023-03-02T13:22:28.457Z,10.02
2023-03-02T13:24:54.919Z,10.42
2023-03-02T13:27:21.371Z,10.11
2023-03-02T13:29:47.824Z,10.82
2023-03-02T13:32:14.239Z,10.64
2023-03-02T13:34:40.647Z,10.94
2023-03-02T13:37:07.026Z,11.10
2023-03-02T13:39:33.422Z,11.44
2023-03-02T13:41:59.877Z,10.14
2023-03-02T13:44:26.294Z,10.65
2023-03-02T13:46:52.732Z,11.64
2023-03-02T13:49:19.123Z,11.91
2023-03-02T13:51:45.540Z,11.64
2023-03-02T13:54:12.083Z,11.42
2023-03-02T13:56:38.474Z,10.79
2023-03-02T13:59:04.850Z,11.25
2023-03-02T14:01:31.284Z,10.88
2023-03-02T14:03:57.804Z,10.60
2023-03-02T14:06:24.258Z,10.08
2023-03-02T14:08:50.617Z,9.50
2023-03-02T14:11:17.003Z,9.89
2023-03-02T14:13:43.382Z,10.08
2023-03-02T14:16:09.799Z,10.57
2023-03-02T14:18:36.178Z,10.98
2023-03-02T14:21:02.693Z,11.16
2023-03-02T14:23:29.154Z,10.12
2023-03-02T14:25:55.552Z,10.54
2023-03-02T14:28:21.944Z,10.81
2023-03-02T14:30:48.401Z,10.18
2023-03-02T14:33:14.831Z,11.10
2023-03-02T14:35:44.630Z,10.99
2023-03-02T14:38:10.998Z,11.24
2023-03-02T14:40:37.384Z,11.22
2023-03-02T14:43:03.788Z,10.86
2023-03-02T14:45:30.928Z,11.72
2023-03-02T14:47:57.463Z,11.82
2023-03-02T14:50:23.871Z,11.59
2023-03-02T14:52:50.257Z,12.42
2023-03-02T14:55:16.640Z,12.70
2023-03-02T14:57:43.069Z,12.68
2023-03-02T15:00:09.458Z,12.24
2023-03-02T15:02:35.928Z,11.72
2023-03-02T15:05:02.403Z,11.65
2023-03-02T15:07:28.767Z,11.97
2023-03-02T15:09:55.197Z,12.55
2023-03-02T15:12:21.601Z,13.24
2023-03-02T15:14:47.981Z,12.94
2023-03-02T15:17:14.401Z,12.71
2023-03-02T15:19:40.800Z,12.94
2023-03-02T15:22:07.367Z,11.55
2023-03-02T15:24:33.791Z,11.55
2023-03-02T15:27:01.543Z,10.70
2023-03-02T15:29:27.953Z,10.97
2023-03-02T15:31:54.512Z,11.18
2023-03-02T15:34:21.051Z,12.37
2023-03-02T15:36:47.499Z,12.00
2023-03-02T15:39:13.918Z,12.30
2023-03-02T15:41:40.381Z,12.88
2023-03-02T15:44:06.783Z,13.82
2023-03-02T15:46:33.234Z,13.72
2023-03-02T15:48:59.683Z,13.88
2023-03-02T15:51:29.349Z,14.23
2023-03-02T15:53:55.724Z,14.71
2023-03-02T15:56:22.886Z,14.20
2023-03-02T15:58:49.367Z,14.24
2023-03-02T16:01:15.779Z,13.77
2023-03-02T16:03:42.227Z,14.18
2023-03-02T16:06:08.608Z,14.40
2023-03-02T16:08:35.001Z,13.79
2023-03-02T16:11:01.458Z,13.61
2023-03-02T16:13:27.968Z,13.64
2023-03-02T16:15:54.393Z,13.33
2023-03-02T16:18:20.769Z,12.54
2023-03-02T16:20:47.174Z,12.91
2023-03-02T16:23:13.619Z,12.29
2023-03-02T16:25:40.051Z,12.38
2023-03-02T16:28:06.441Z,12.41
2023-03-02T16:30:32.843Z,12.14
2023-03-02T16:32:59.226Z,11.83
2023-03-02T16:35:25.613Z,12.37
2023-03-02T16:37:52.100Z,12.85
2023-03-02T16:40:18.484Z,12.49
2023-03-02T16:42:44.891Z,12.63
2023-03-02T16:45:11.297Z,12.74
2023-03-02T16:47:37.660Z,12.50
2023-03-02T16:50:04.086Z,12.28
2023-03-02T16:52:30.452Z,12.39
2023-03-02T16:54:56.862Z,11.49
2023-03-02T16:57:23.266Z,10.88
2023-03-02T16:59:49.645Z,10.45
2023-03-02T17:02:16.071Z,10.64
2023-03-02T17:04:42.466Z,10.17
2023-03-02T17:07:08.922Z,9.92
2023-03-02T17:09:35.316Z,9.94
2023-03-02T17:12:01.716Z,9.87
2023-03-02T17:14:28.099Z,9.85
2023-03-02T17:16:54.518Z,9.86
2023-03-02T17:19:20.874Z,9.91
2023-03-02T17:21:47.274Z,9.67
2023-03-02T17:24:13.684Z,9.55
2023-03-02T17:26:40.066Z,9.36
2023-03-02T17:29:06.480Z,9.37
2023-03-02T17:31:32.920Z,9.50
2023-03-02T17:33:59.385Z,9.38
2023-03-02T17:36:25.861Z,9.13
2023-03-02T17:38:52.220Z,9.10
2023-03-02T17:41:18.590Z,9.07
2023-03-02T17:43:45.038Z,8.85
2023-03-02T17:46:11.438Z,8.93
2023-03-02T17:48:37.960Z,9.03
2023-03-02T17:51:04.372Z,8.87
2023-03-02T17:53:30.756Z,8.85
2023-03-02T17:55:57.146Z,8.86
2023-03-02T17:58:25.264Z,8.93
2023-03-02T18:00:54.096Z,8.87
2023-03-02T18:03:20.602Z,8.72
2023-03-02T18:05:47.046Z,8.59
2023-03-02T18:08:13.411Z,8.63
2023-03-02T18:10:39.766Z,8.74
2023-03-02T18:13:06.172Z,8.66
2023-03-02T18:15:32.553Z,8.63
2023-03-02T18:17:58.935Z,8.54
2023-03-02T18:20:25.322Z,8.48
2023-03-02T18:22:51.759Z,8.36
2023-03-02T18:25:18.157Z,8.42
2023-03-02T18:27:44.558Z,8.36
2023-03-02T18:30:11.052Z,8.48
2023-03-02T18:32:37.509Z,8.50
2023-03-02T18:35:03.894Z,8.48
2023-03-02T18:37:30.347Z,8.45
2023-03-02T18:39:56.764Z,8.45
2023-03-02T18:42:23.168Z,8.45
2023-03-02T18:44:49.641Z,8.43
2023-03-02T18:47:16.040Z,8.45
2023-03-02T18:49:42.401Z,8.77
2023-03-02T18:52:08.768Z,8.72
2023-03-02T18:54:35.155Z,8.34
2023-03-02T18:57:01.569Z,8.00
2023-03-02T18:59:27.995Z,7.97
2023-03-02T19:01:54.410Z,8.00
2023-03-02T19:04:20.851Z,8.01
2023-03-02T19:06:47.215Z,7.91
2023-03-02T19:09:13.596Z,7.73
2023-03-02T19:11:39.963Z,7.78
2023-03-02T19:14:06.342Z,7.79
2023-03-02T19:16:32.747Z,7.85
2023-03-02T19:18:59.184Z,7.77
2023-03-02T19:21:25.621Z,7.74
2023-03-02T19:23:52.042Z,7.75
2023-03-02T19:26:18.405Z,7.70
2023-03-02T19:28:44.819Z,7.72
2023-03-02T19:31:11.332Z,7.56
2023-03-02T19:33:37.881Z,7.60
2023-03-02T19:36:04.282Z,7.57
2023-03-02T19:38:30.694Z,7.50
2023-03-02T19:40:57.072Z,7.52
2023-03-02T19:43:23.453Z,7.53
2023-03-02T19:45:49.901Z,7.30
2023-03-02T19:48:16.318Z,7.42
2023-03-02T19:50:42.711Z,7.46
2023-03-02T19:53:09.071Z,7.40
2023-03-02T19:55:35.460Z,7.32
2023-03-02T19:58:01.863Z,7.37
2023-03-02T20:00:28.242Z,7.30
2023-03-02T20:02:54.862Z,7.31
2023-03-02T20:05:21.311Z,7.29
2023-03-02T20:07:47.702Z,7.39
2023-03-02T20:10:14.105Z,7.21
2023-03-02T20:12:40.495Z,7.20
2023-03-02T20:15:06.905Z,7.33
2023-03-02T20:17:33.289Z,7.18
2023-03-02T20:19:59.688Z,7.16
2023-03-02T20:22:26.269Z,7.31
2023-03-02T20:24:52.730Z,7.26
2023-03-02T20:27:19.166Z,7.02
2023-03-02T20:29:45.709Z,6.98
2023-03-02T20:32:12.214Z,7.06
2023-03-02T20:34:38.722Z,7.04
2023-03-02T20:37:05.127Z,7.05
2023-03-02T20:39:31.580Z,7.08
2023-03-02T20:41:57.963Z,7.10
2023-03-02T20:44:24.385Z,7.07
2023-03-02T20:46:50.789Z,7.06
2023-03-02T20:49:17.207Z,6.97
2023-03-02T20:51:43.610Z,7.04
2023-03-02T20:54:10.081Z,7.04
2023-03-02T20:56:36.482Z,7.01
2023-03-02T20:59:02.856Z,6.94
2023-03-02T21:01:29.359Z,6.93
2023-03-02T21:03:55.773Z,6.80
2023-03-02T21:06:22.134Z,6.82
2023-03-02T21:08:48.584Z,6.86
2023-03-02T21:11:15.068Z,6.89
2023-03-02T21:13:41.612Z,6.81
2023-03-02T21:16:08.054Z,6.83
2023-03-02T21:18:34.483Z,6.89
2023-03-02T21:21:00.899Z,6.81
2023-03-02T21:23:27.275Z,6.80
2023-03-02T21:25:53.685Z,6.78
2023-03-02T21:28:20.058Z,6.83
2023-03-02T21:30:46.633Z,6.85
2023-03-02T21:33:13.034Z,6.89
2023-03-02T21:35:39.454Z,6.90
2023-03-02T21:38:05.916Z,6.74
2023-03-02T21:40:32.380Z,6.78
2023-03-02T21:42:58.783Z,6.75
2023-03-02T21:45:25.181Z,6.85
2023-03-02T21:47:51.577Z,6.74
2023-03-02T21:50:17.979Z,6.82
2023-03-02T21:52:44.367Z,6.84
2023-03-02T21:55:10.814Z,6.80
2023-03-02T21:57:37.334Z,6.75
2023-03-02T22:00:03.713Z,6.88
2023-03-02T22:02:30.122Z,6.82
2023-03-02T22:04:56.504Z,6.93
2023-03-02T22:07:22.877Z,6.86
2023-03-02T22:09:49.285Z,6.97
2023-03-02T22:12:15.670Z,6.86
2023-03-02T22:14:42.027Z,6.82
2023-03-02T22:17:08.479Z,6.86
2023-03-02T22:19:34.849Z,6.79
2023-03-02T22:22:01.270Z,6.74
2023-03-02T22:24:27.773Z,6.78
2023-03-02T22:26:54.181Z,6.76
2023-03-02T22:29:23.392Z,6.62
2023-03-02T22:31:49.834Z,6.72
2023-03-02T22:34:17.619Z,6.73
2023-03-02T22:36:45.108Z,6.51
2023-03-02T22:39:11.537Z,6.44
2023-03-02T22:41:37.902Z,6.45
2023-03-02T22:44:04.299Z,6.53
2023-03-02T22:46:30.690Z,6.38
2023-03-02T22:48:57.069Z,6.34
2023-03-02T22:51:23.461Z,6.35
2023-03-02T22:53:49.843Z,6.24
2023-03-02T22:56:16.223Z,6.13
2023-03-02T22:58:42.685Z,6.06
2023-03-02T23:01:09.217Z,6.02
2023-03-02T23:03:35.677Z,6.03
2023-03-02T23:06:02.074Z,5.98
2023-03-02T23:08:28.454Z,5.98
2023-03-02T23:10:54.854Z,5.97
2023-03-02T23:13:21.265Z,5.95
2023-03-02T23:15:47.686Z,6.03
2023-03-02T23:18:14.140Z,6.00
2023-03-02T23:20:40.503Z,6.05
2023-03-02T23:23:06.914Z,5.99
2023-03-02T23:25:33.269Z,5.88
2023-03-02T23:27:59.638Z,5.81
2023-03-02T23:30:26.017Z,5.70
2023-03-02T23:32:52.429Z,5.72
2023-03-02T23:35:18.923Z,5.61
2023-03-02T23:37:45.361Z,5.63
2023-03-02T23:40:11.756Z,5.67
2023-03-02T23:42:38.115Z,5.71
2023-03-02T23:45:04.511Z,5.70
2023-03-02T23:47:31.683Z,5.74
2023-03-02T23:49:58.081Z,5.73
2023-03-02T23:52:24.459Z,5.69
2023-03-02T23:54:50.845Z,5.71
2023-03-02T23:57:17.217Z,5.73
2023-03-02T23:59:43.603Z,5.75
